Time;durP1;ratioP1;P1;durP2;ratioP2;P2;SDS_P1;SDS_P2;PMS_P1;PMS_P2;Temp;Humidity;BMP_temperature;BMP_pressure;BME280_temperature;BME280_humidity;BME280_pressure;Samples;Min_cycle;Max_cycle;Signal;HPM_P1;HPM_P2
2022/10/17 00:00:20;;;;;;;12.20;6.68;;;15.00;99.90;;;;;;5056096;28;20041;-59
2022/10/17 00:02:45;;;;;;;15.20;6.13;;;15.00;99.90;;;;;;5050301;28;20036;-59
2022/10/17 00:05:11;;;;;;;13.45;6.78;;;15.00;99.90;;;;;;5055248;28;20033;-59
2022/10/17 00:07:37;;;;;;;11.48;5.78;;;14.90;99.90;;;;;;5052994;28;20029;-59
2022/10/17 00:10:04;;;;;;;11.23;5.65;;;14.90;99.90;;;;;;5050069;28;20082;-59
2022/10/17 00:12:29;;;;;;;16.85;6.18;;;14.90;99.90;;;;;;5050734;28;20060;-59
2022/10/17 00:14:55;;;;;;;17.60;5.55;;;14.90;99.90;;;;;;5055402;28;20061;-59
2022/10/17 00:17:20;;;;;;;11.85;6.03;;;14.90;99.90;;;;;;5052905;28;20031;-59
2022/10/17 00:19:46;;;;;;;11.65;5.22;;;14.80;99.90;;;;;;5048429;28;20029;-58
2022/10/17 00:22:12;;;;;;;13.40;6.50;;;14.80;99.90;;;;;;5056758;28;20035;-59
2022/10/17 00:24:37;;;;;;;10.55;5.15;;;14.80;99.90;;;;;;5053857;28;20492;-59
2022/10/17 00:27:03;;;;;;;16.30;5.93;;;14.80;99.90;;;;;;5050888;28;20057;-60
2022/10/17 00:29:29;;;;;;;10.88;5.72;;;14.70;99.90;;;;;;5048650;28;20033;-58
2022/10/17 00:31:56;;;;;;;14.90;5.50;;;14.70;99.90;;;;;;5046299;28;20033;-60
2022/10/17 00:34:21;;;;;;;14.57;6.82;;;14.70;99.90;;;;;;5051042;28;20096;-58
2022/10/17 00:36:47;;;;;;;10.35;6.60;;;14.60;99.90;;;;;;5051027;28;20032;-59
2022/10/17 00:39:13;;;;;;;16.50;7.00;;;14.70;99.90;;;;;;5055990;28;20028;-59
2022/10/17 00:41:38;;;;;;;11.77;5.97;;;14.60;99.90;;;;;;5050068;28;20037;-58
2022/10/17 00:44:07;;;;;;;18.67;7.18;;;14.70;99.90;;;;;;5057298;28;20091;-59
2022/10/17 00:46:37;;;;;;;14.95;6.30;;;14.60;99.90;;;;;;5050582;28;20059;-59
2022/10/17 00:49:07;;;;;;;12.02;6.82;;;14.60;99.90;;;;;;5053325;28;20108;-58
2022/10/17 00:51:38;;;;;;;14.25;7.07;;;14.60;99.90;;;;;;5048942;28;20075;-59
2022/10/17 00:54:05;;;;;;;10.48;6.65;;;14.70;99.90;;;;;;5049628;28;20095;-59
2022/10/17 00:56:31;;;;;;;9.77;6.07;;;14.60;99.90;;;;;;5049036;28;20104;-57
2022/10/17 00:58:57;;;;;;;16.08;7.72;;;14.60;99.90;;;;;;5050098;28;20033;-58
2022/10/17 01:01:22;;;;;;;15.07;7.47;;;14.50;99.90;;;;;;5050467;28;20059;-59
2022/10/17 01:03:48;;;;;;;12.48;6.10;;;14.50;99.90;;;;;;5060032;28;20065;-59
2022/10/17 01:06:13;;;;;;;10.70;6.13;;;14.60;99.90;;;;;;5050108;28;20051;-60
2022/10/17 01:08:39;;;;;;;17.02;7.18;;;14.50;99.90;;;;;;5059394;28;20112;-58
2022/10/17 01:11:10;;;;;;;16.75;6.63;;;14.50;99.90;;;;;;5051917;28;20073;-58
2022/10/17 01:13:52;;;;;;;20.00;8.27;;;14.50;99.90;;;;;;5046633;28;20025;-59
2022/10/17 01:16:37;;;;;;;19.85;7.63;;;14.50;99.90;;;;;;5043645;28;20039;-59
2022/10/17 01:19:28;;;;;;;18.55;7.55;;;14.50;99.90;;;;;;5037525;28;20029;-57
2022/10/17 01:22:00;;;;;;;21.38;8.05;;;14.50;99.90;;;;;;5041359;28;20098;-57
2022/10/17 01:24:53;;;;;;;14.30;6.25;;;14.40;99.90;;;;;;5039318;28;20033;-56
2022/10/17 01:27:32;;;;;;;15.25;7.10;;;14.30;99.90;;;;;;5039678;28;20028;-59
2022/10/17 01:30:12;;;;;;;21.17;7.65;;;14.40;99.90;;;;;;5040047;28;20057;-59
2022/10/17 01:33:13;;;;;;;11.48;7.38;;;14.30;99.90;;;;;;5038221;28;20194;-58
2022/10/17 01:35:54;;;;;;;10.27;6.32;;;14.30;99.90;;;;;;5008750;28;20095;-60
2022/10/17 01:38:25;;;;;;;12.82;6.70;;;14.20;99.90;;;;;;5039301;28;20132;-60
2022/10/17 01:41:18;;;;;;;20.88;7.35;;;14.20;99.90;;;;;;5038872;28;20056;-59
2022/10/17 01:44:06;;;;;;;16.27;6.05;;;14.20;99.90;;;;;;5007799;28;20037;-59
2022/10/17 01:46:36;;;;;;;15.55;6.80;;;14.10;99.90;;;;;;5050018;28;20494;-59
2022/10/17 01:49:05;;;;;;;15.45;6.35;;;14.20;99.90;;;;;;5036900;28;20025;-59
2022/10/17 01:51:42;;;;;;;12.98;7.05;;;14.20;99.90;;;;;;5039941;28;20474;-58
2022/10/17 01:54:36;;;;;;;16.27;6.70;;;14.20;99.90;;;;;;5039416;28;20437;-59
2022/10/17 01:57:06;;;;;;;12.07;5.47;;;14.20;99.90;;;;;;5040039;28;20033;-59
2022/10/17 01:59:39;;;;;;;15.32;7.13;;;14.10;99.90;;;;;;5041812;28;20505;-59
2022/10/17 02:02:05;;;;;;;19.17;6.68;;;14.20;99.90;;;;;;5041086;28;20029;-55
2022/10/17 02:04:31;;;;;;;16.05;7.50;;;14.20;99.90;;;;;;5038727;28;20074;-58
2022/10/17 02:07:04;;;;;;;15.15;7.15;;;14.10;99.90;;;;;;5041426;28;20028;-59
2022/10/17 02:09:29;;;;;;;13.30;6.32;;;14.20;99.90;;;;;;5036607;28;20501;-61
2022/10/17 02:12:16;;;;;;;10.38;5.78;;;14.20;99.90;;;;;;5039505;28;20028;-58
2022/10/17 02:14:56;;;;;;;12.75;6.97;;;14.20;99.90;;;;;;5041882;28;20032;-58
2022/10/17 02:17:41;;;;;;;10.57;6.57;;;14.20;99.90;;;;;;5039427;28;20069;-59
2022/10/17 02:20:21;;;;;;;10.70;7.00;;;14.20;99.90;;;;;;5038082;28;20074;-56
2022/10/17 02:22:55;;;;;;;16.48;6.88;;;14.20;99.90;;;;;;5039428;28;20032;-59
2022/10/17 02:25:37;;;;;;;;;;;14.30;99.90;;;;;;5039434;28;20076;-58
2022/10/17 02:28:07;;;;;;;23.60;6.47;;;14.30;99.90;;;;;;5039660;28;19982;-58
2022/10/17 02:30:43;;;;;;;13.43;7.25;;;14.30;99.90;;;;;;5038849;28;20696;-58
2022/10/17 02:33:24;;;;;;;13.90;6.22;;;14.30;99.90;;;;;;5041026;28;20099;-60
2022/10/17 02:35:55;;;;;;;18.88;6.85;;;14.30;99.90;;;;;;5047649;28;20078;-58
2022/10/17 02:38:23;;;;;;;17.65;6.50;;;14.30;99.90;;;;;;5040992;28;20041;-57
2022/10/17 02:40:51;;;;;;;9.57;5.88;;;14.30;99.90;;;;;;5044930;28;20033;-59
2022/10/17 02:43:18;;;;;;;12.13;6.38;;;14.40;99.90;;;;;;5044219;28;20074;-59
2022/10/17 02:45:45;;;;;;;12.50;6.00;;;14.40;99.90;;;;;;5048356;28;20395;-56
2022/10/17 02:48:24;;;;;;;25.10;7.38;;;14.40;99.90;;;;;;5054020;28;20487;-58
2022/10/17 02:50:52;;;;;;;13.52;6.65;;;14.40;99.90;;;;;;5048020;28;20037;-57
2022/10/17 02:53:38;;;;;;;9.05;5.82;;;14.40;99.90;;;;;;5057250;28;20024;-59
2022/10/17 02:56:13;;;;;;;9.73;5.82;;;14.30;99.90;;;;;;5048447;28;20104;-57
2022/10/17 02:58:40;;;;;;;11.13;7.00;;;14.30;99.90;;;;;;5045650;28;20029;-57
2022/10/17 03:01:06;;;;;;;13.15;6.53;;;14.30;99.90;;;;;;5045576;28;20066;-59
2022/10/17 03:03:32;;;;;;;8.68;5.93;;;14.40;99.90;;;;;;5054038;28;20040;-58
2022/10/17 03:05:57;;;;;;;20.70;6.55;;;14.40;99.90;;;;;;5049244;28;20025;-59
2022/10/17 03:08:23;;;;;;;9.77;6.32;;;14.40;99.90;;;;;;5051324;28;20510;-57
2022/10/17 03:10:49;;;;;;;14.43;6.65;;;14.40;99.90;;;;;;5049082;28;20379;-58
2022/10/17 03:13:15;;;;;;;13.90;6.32;;;14.40;99.90;;;;;;5048272;28;20028;-58
2022/10/17 03:15:41;;;;;;;8.93;5.97;;;14.50;99.90;;;;;;5048264;28;20052;-58
2022/10/17 03:18:07;;;;;;;14.57;5.97;;;14.40;99.90;;;;;;5046895;28;20541;-59
2022/10/17 03:20:32;;;;;;;13.88;5.93;;;14.50;99.90;;;;;;5047679;28;20115;-56
2022/10/17 03:22:58;;;;;;;12.43;6.82;;;14.50;99.90;;;;;;5048813;28;20021;-57
2022/10/17 03:25:24;;;;;;;13.20;6.72;;;14.60;99.90;;;;;;5047093;28;20033;-58
2022/10/17 03:27:50;;;;;;;11.60;7.93;;;14.70;99.90;;;;;;5048178;28;20025;-56
2022/10/17 03:30:15;;;;;;;12.88;7.05;;;14.80;99.90;;;;;;5048922;28;20037;-56
2022/10/17 03:32:41;;;;;;;17.17;8.00;;;14.90;99.90;;;;;;5052264;28;20040;-59
2022/10/17 03:35:07;;;;;;;12.02;6.70;;;14.90;99.90;;;;;;5051026;28;20029;-59
2022/10/17 03:37:32;;;;;;;11.95;6.82;;;15.00;99.90;;;;;;5055823;28;20037;-58
2022/10/17 03:39:58;;;;;;;14.55;6.80;;;15.00;99.90;;;;;;5043392;28;20029;-59
2022/10/17 03:42:23;;;;;;;24.45;7.93;;;15.00;99.90;;;;;;5063345;22;20056;-58
2022/10/17 03:44:49;;;;;;;18.42;7.63;;;15.00;99.90;;;;;;5042960;28;20539;-56
2022/10/17 03:47:14;;;;;;;19.55;7.47;;;15.10;99.90;;;;;;5045130;28;20029;-55
2022/10/17 03:49:40;;;;;;;16.80;6.50;;;15.10;99.90;;;;;;5042748;28;20104;-54
2022/10/17 03:52:09;;;;;;;12.57;7.05;;;15.10;99.90;;;;;;5014011;28;20033;-58
2022/10/17 03:54:34;;;;;;;12.75;7.20;;;15.10;99.90;;;;;;5023694;28;20026;-59
2022/10/17 03:57:00;;;;;;;15.50;6.57;;;15.10;99.90;;;;;;5027742;28;20025;-56
2022/10/17 03:59:26;;;;;;;14.70;7.10;;;15.10;99.90;;;;;;5022556;28;20395;-58
2022/10/17 04:01:51;;;;;;;11.60;6.78;;;15.10;99.90;;;;;;5021247;28;20037;-53
2022/10/17 04:04:17;;;;;;;24.10;7.63;;;15.10;99.90;;;;;;5023668;28;20119;-55
2022/10/17 04:06:42;;;;;;;13.38;7.07;;;15.10;99.90;;;;;;5023577;28;20491;-55
2022/10/17 04:09:09;;;;;;;20.65;7.00;;;15.10;99.90;;;;;;5022525;28;20041;-57
2022/10/17 04:11:35;;;;;;;11.00;6.57;;;15.10;99.90;;;;;;5021184;28;20033;-55
2022/10/17 04:14:01;;;;;;;15.52;6.90;;;15.20;99.90;;;;;;5021823;28;20498;-59
2022/10/17 04:16:27;;;;;;;26.30;7.70;;;15.10;99.90;;;;;;5022516;28;20066;-59
2022/10/17 04:18:55;;;;;;;19.30;7.68;;;15.10;99.90;;;;;;5018734;28;20568;-58
2022/10/17 04:21:21;;;;;;;17.10;7.15;;;15.10;99.90;;;;;;5022653;28;20030;-58
2022/10/17 04:23:47;;;;;;;14.85;6.18;;;15.10;99.90;;;;;;5023670;28;20025;-54
2022/10/17 04:26:12;;;;;;;14.40;6.95;;;15.10;99.90;;;;;;5025458;28;20132;-56
2022/10/17 04:28:38;;;;;;;14.27;7.25;;;15.00;99.90;;;;;;5020830;28;20064;-57
2022/10/17 04:31:06;;;;;;;14.57;7.28;;;15.00;99.90;;;;;;5022592;28;20034;-58
2022/10/17 04:33:33;;;;;;;13.80;7.40;;;15.00;99.90;;;;;;5021434;28;21341;-56
2022/10/17 04:36:04;;;;;;;9.52;6.60;;;15.00;99.90;;;;;;5021531;28;20024;-58
2022/10/17 04:38:30;;;;;;;12.75;6.93;;;15.00;99.90;;;;;;5026635;28;20380;-59
2022/10/17 04:40:57;;;;;;;14.18;7.20;;;15.00;99.90;;;;;;5032208;28;20045;-57
2022/10/17 04:43:22;;;;;;;12.32;7.15;;;15.00;99.90;;;;;;5033501;28;20025;-59
2022/10/17 04:45:48;;;;;;;10.68;7.30;;;15.00;99.90;;;;;;5033088;28;20080;-61
2022/10/17 04:48:14;;;;;;;15.50;6.82;;;15.00;99.90;;;;;;5030560;28;20041;-60
2022/10/17 04:50:39;;;;;;;18.52;6.57;;;15.00;99.90;;;;;;5032209;28;20026;-60
2022/10/17 04:53:05;;;;;;;16.67;7.40;;;15.10;99.90;;;;;;5026450;28;20434;-57
2022/10/17 04:55:30;;;;;;;16.17;8.02;;;15.10;99.90;;;;;;5021712;28;20083;-59
2022/10/17 04:57:56;;;;;;;21.40;7.30;;;15.20;99.90;;;;;;5024787;28;20018;-60
2022/10/17 05:00:21;;;;;;;18.60;8.70;;;15.20;99.90;;;;;;5020341;28;20067;-61
2022/10/17 05:02:47;;;;;;;18.55;7.47;;;15.30;99.90;;;;;;5018892;28;20045;-61
2022/10/17 05:05:12;;;;;;;26.52;8.52;;;15.30;99.90;;;;;;5029111;28;20533;-59
2022/10/17 05:07:40;;;;;;;23.88;7.35;;;15.30;99.90;;;;;;5025847;28;20026;-60
2022/10/17 05:10:07;;;;;;;25.00;8.52;;;15.40;99.90;;;;;;5026574;28;20030;-59
2022/10/17 05:12:32;;;;;;;22.67;7.90;;;15.50;99.90;;;;;;5021387;28;20120;-60
2022/10/17 05:14:58;;;;;;;19.10;7.43;;;15.50;99.90;;;;;;5031266;28;20113;-60
2022/10/17 05:17:23;;;;;;;17.10;7.28;;;15.60;99.90;;;;;;5021316;28;20018;-58
2022/10/17 05:19:49;;;;;;;26.65;9.05;;;15.60;99.90;;;;;;5018805;28;20037;-60
2022/10/17 05:22:14;;;;;;;13.45;6.75;;;15.70;99.90;;;;;;5017971;28;20037;-57
2022/10/17 05:24:40;;;;;;;12.82;6.88;;;15.70;99.90;;;;;;5020496;28;20108;-59
2022/10/17 05:27:05;;;;;;;19.75;7.38;;;15.80;99.90;;;;;;5023197;28;20036;-59
2022/10/17 05:29:31;;;;;;;32.28;8.30;;;15.90;99.90;;;;;;5026042;28;20071;-59
2022/10/17 05:31:57;;;;;;;16.08;6.63;;;15.90;99.90;;;;;;5022133;28;20380;-59
2022/10/17 05:34:23;;;;;;;15.85;6.32;;;16.00;99.90;;;;;;5021323;28;20068;-53
2022/10/17 05:36:49;;;;;;;13.88;5.65;;;15.90;99.90;;;;;;5023428;28;20024;-61
2022/10/17 05:39:18;;;;;;;12.90;5.82;;;16.00;99.90;;;;;;5026465;28;20037;-59
2022/10/17 05:41:44;;;;;;;10.68;5.72;;;16.00;99.90;;;;;;5021224;28;20026;-59
2022/10/17 05:44:09;;;;;;;13.82;5.85;;;15.90;99.90;;;;;;5024945;28;20105;-60
2022/10/17 05:46:35;;;;;;;19.77;7.68;;;16.00;99.90;;;;;;5021394;28;20148;-58
2022/10/17 05:49:00;;;;;;;11.73;6.03;;;16.00;99.90;;;;;;5020883;28;20095;-60
2022/10/17 05:51:26;;;;;;;17.98;6.10;;;16.10;99.90;;;;;;5021642;28;20033;-59
2022/10/17 05:53:51;;;;;;;19.63;6.55;;;16.10;99.90;;;;;;5024476;28;20033;-59
2022/10/17 05:56:19;;;;;;;20.15;6.95;;;16.10;99.90;;;;;;5027565;28;20038;-57
2022/10/17 05:58:44;;;;;;;9.43;5.32;;;16.10;99.90;;;;;;5024585;28;20022;-60
2022/10/17 06:01:11;;;;;;;12.27;5.80;;;16.10;99.90;;;;;;5025704;28;20078;-59
2022/10/17 06:03:37;;;;;;;16.17;6.00;;;16.10;99.90;;;;;;5020626;28;20076;-57
2022/10/17 06:06:08;;;;;;;9.90;5.95;;;16.10;99.90;;;;;;5021844;28;20068;-59
2022/10/17 06:08:33;;;;;;;12.27;6.18;;;16.10;99.90;;;;;;5025777;28;20041;-59
2022/10/17 06:10:59;;;;;;;16.77;5.90;;;16.10;99.90;;;;;;5027909;28;20039;-60
2022/10/17 06:13:25;;;;;;;13.85;5.28;;;16.10;99.90;;;;;;5026472;28;20478;-59
2022/10/17 06:15:51;;;;;;;11.07;5.20;;;16.10;99.90;;;;;;5028681;28;20052;-58
2022/10/17 06:18:16;;;;;;;9.98;4.90;;;16.10;99.90;;;;;;5019269;28;20026;-59
2022/10/17 06:20:42;;;;;;;9.95;5.47;;;16.10;99.90;;;;;;5023573;28;20503;-59
2022/10/17 06:23:07;;;;;;;8.70;4.90;;;16.10;99.90;;;;;;5024326;28;20069;-58
2022/10/17 06:25:33;;;;;;;13.38;5.78;;;16.20;99.90;;;;;;5029578;28;20060;-51
2022/10/17 06:27:58;;;;;;;15.80;6.35;;;16.20;99.90;;;;;;5027083;28;20056;-58
2022/10/17 06:30:24;;;;;;;13.50;5.60;;;16.20;99.90;;;;;;5025170;28;20048;-54
2022/10/17 06:32:51;;;;;;;11.45;5.75;;;16.20;99.90;;;;;;5028342;28;20057;-56
2022/10/17 06:35:17;;;;;;;18.45;6.10;;;16.30;99.90;;;;;;5024880;28;20034;-58
2022/10/17 06:37:42;;;;;;;14.65;5.65;;;16.30;99.90;;;;;;5026621;28;20079;-58
2022/10/17 06:40:10;;;;;;;13.07;5.82;;;16.20;99.90;;;;;;5026053;28;20033;-53
2022/10/17 06:42:36;;;;;;;10.90;5.40;;;16.30;99.90;;;;;;5024954;28;20025;-59
2022/10/17 06:45:02;;;;;;;15.23;7.00;;;16.30;99.90;;;;;;5020423;28;20063;-54
2022/10/17 06:47:27;;;;;;;10.82;5.88;;;16.30;99.90;;;;;;5021201;28;20103;-59
2022/10/17 06:49:53;;;;;;;18.40;5.28;;;16.30;99.90;;;;;;5026050;28;20488;-57
2022/10/17 06:52:18;;;;;;;14.68;6.60;;;16.40;99.90;;;;;;5023995;28;20041;-54
2022/10/17 06:54:44;;;;;;;18.00;6.72;;;16.50;99.90;;;;;;5027156;28;20251;-57
2022/10/17 06:57:09;;;;;;;19.50;5.53;;;16.50;99.90;;;;;;5025591;28;20053;-53
2022/10/17 06:59:35;;;;;;;18.50;5.75;;;16.60;99.90;;;;;;5027129;28;20391;-59
2022/10/17 07:02:01;;;;;;;15.38;5.18;;;16.70;99.90;;;;;;5027835;28;20044;-54
2022/10/17 07:04:27;;;;;;;13.05;4.85;;;16.70;99.90;;;;;;5024571;28;20030;-56
2022/10/17 07:06:53;;;;;;;19.00;6.28;;;16.80;99.90;;;;;;5026284;28;20030;-56
2022/10/17 07:09:18;;;;;;;16.30;4.30;;;16.90;99.90;;;;;;5026412;28;21830;-55
2022/10/17 07:11:44;;;;;;;16.60;6.25;;;17.10;99.90;;;;;;5026564;28;20114;-58
2022/10/17 07:14:10;;;;;;;7.65;4.47;;;17.20;99.90;;;;;;5024889;28;20057;-53
2022/10/17 07:16:36;;;;;;;9.98;4.32;;;17.30;99.90;;;;;;5027612;28;20049;-56
2022/10/17 07:19:02;;;;;;;23.23;6.28;;;17.30;99.90;;;;;;5021297;28;20395;-54
2022/10/17 07:21:27;;;;;;;14.73;5.32;;;17.40;99.90;;;;;;5024020;28;20092;-53
2022/10/17 07:23:53;;;;;;;8.27;4.32;;;17.50;99.90;;;;;;5028690;28;20037;-54
2022/10/17 07:26:19;;;;;;;8.98;5.38;;;17.50;99.90;;;;;;5024059;28;20032;-55
2022/10/17 07:28:49;;;;;;;15.27;4.85;;;17.60;99.90;;;;;;5028921;28;20240;-56
2022/10/17 07:31:17;;;;;;;14.13;5.15;;;17.50;99.90;;;;;;5020763;28;20075;-57
2022/10/17 07:33:43;;;;;;;11.80;5.20;;;17.60;99.90;;;;;;5024226;28;20057;-57
2022/10/17 07:36:09;;;;;;;14.95;5.65;;;17.70;99.90;;;;;;5025023;28;20108;-53
2022/10/17 07:38:35;;;;;;;8.73;5.18;;;17.60;99.90;;;;;;5028998;28;20441;-56
2022/10/17 07:41:03;;;;;;;15.68;4.40;;;17.70;99.90;;;;;;5029789;28;20053;-58
2022/10/17 07:43:29;;;;;;;10.70;4.63;;;17.60;99.90;;;;;;5033803;28;20037;-57
2022/10/17 07:45:55;;;;;;;13.55;4.65;;;17.70;99.90;;;;;;5032950;28;20025;-56
2022/10/17 07:48:22;;;;;;;12.48;4.88;;;17.70;99.90;;;;;;5030014;28;20044;-57
2022/10/17 07:50:49;;;;;;;10.77;4.28;;;17.80;99.90;;;;;;5033629;28;20029;-57
2022/10/17 07:53:15;;;;;;;7.60;5.10;;;17.90;99.90;;;;;;5033047;28;20429;-57
2022/10/17 07:55:41;;;;;;;13.38;5.13;;;17.90;99.90;;;;;;5033599;28;20025;-58
2022/10/17 07:58:07;;;;;;;12.60;5.05;;;17.90;99.90;;;;;;5033715;28;20364;-54
2022/10/17 08:00:34;;;;;;;10.35;4.53;;;17.90;99.90;;;;;;5032403;28;20076;-56
2022/10/17 08:02:59;;;;;;;8.90;4.53;;;18.00;99.90;;;;;;5033302;28;20029;-53
2022/10/17 08:05:25;;;;;;;9.63;5.03;;;18.00;99.90;;;;;;5033172;28;20540;-58
2022/10/17 08:07:50;;;;;;;14.07;4.80;;;18.10;99.90;;;;;;5030671;28;20028;-59
2022/10/17 08:10:16;;;;;;;11.93;4.70;;;18.10;99.90;;;;;;5029813;28;20128;-58
2022/10/17 08:12:42;;;;;;;11.85;4.13;;;18.00;99.90;;;;;;5033201;28;20068;-57
2022/10/17 08:15:09;;;;;;;9.20;4.68;;;18.10;99.90;;;;;;5031917;28;20029;-58
2022/10/17 08:17:36;;;;;;;10.07;4.97;;;18.20;99.90;;;;;;5031056;28;20129;-53
2022/10/17 08:20:02;;;;;;;12.60;4.47;;;18.20;99.90;;;;;;5032378;28;20033;-54
2022/10/17 08:22:28;;;;;;;11.75;5.10;;;18.20;99.90;;;;;;5033299;28;20041;-53
2022/10/17 08:24:53;;;;;;;12.30;4.50;;;18.30;99.90;;;;;;5032234;28;20029;-53
2022/10/17 08:27:26;;;;;;;8.93;4.43;;;18.40;99.90;;;;;;5032000;28;20177;-58
2022/10/17 08:29:53;;;;;;;13.90;4.07;;;18.40;99.90;;;;;;5030372;28;20441;-56
2022/10/17 08:32:20;;;;;;;9.27;4.22;;;18.40;99.90;;;;;;5031691;28;20114;-54
2022/10/17 08:34:45;;;;;;;20.48;5.50;;;18.40;99.90;;;;;;5031374;28;20025;-54
2022/10/17 08:37:14;;;;;;;9.40;3.78;;;18.40;99.90;;;;;;5030390;28;20565;-56
2022/10/17 08:39:41;;;;;;;14.90;5.00;;;18.40;99.90;;;;;;5030501;28;20480;-60
2022/10/17 08:42:26;;;;;;;15.07;4.80;;;18.50;99.90;;;;;;5029262;28;20129;-58
2022/10/17 08:44:51;;;;;;;7.05;3.65;;;18.60;99.90;;;;;;5030813;28;20116;-55
2022/10/17 08:47:34;;;;;;;6.65;4.22;;;18.60;99.90;;;;;;5029990;28;20649;-60
2022/10/17 08:50:04;;;;;;;15.80;4.57;;;18.70;99.90;;;;;;5032057;28;20029;-60
2022/10/17 08:52:46;;;;;;;12.13;4.18;;;18.70;99.90;;;;;;5031232;28;20025;-60
2022/10/17 08:55:21;;;;;;;10.20;4.40;;;18.70;99.90;;;;;;5029379;28;20029;-59
2022/10/17 08:57:47;;;;;;;9.63;5.18;;;18.70;99.90;;;;;;5030437;28;20022;-59
2022/10/17 09:00:18;;;;;;;12.70;5.25;;;18.70;99.90;;;;;;5027442;28;20080;-59
2022/10/17 09:02:56;;;;;;;14.27;4.15;;;18.70;99.90;;;;;;5028067;28;20025;-58
2022/10/17 09:05:24;;;;;;;14.73;4.40;;;18.80;99.90;;;;;;5025372;28;20056;-59
2022/10/17 09:08:40;;;;;;;7.53;3.90;;;18.80;99.90;;;;;;5030244;28;20322;-57
2022/10/17 09:11:22;;;;;;;5.70;3.63;;;18.90;99.90;;;;;;5026093;28;20044;-60
2022/10/17 09:14:11;;;;;;;9.15;3.28;;;19.00;99.90;;;;;;5030089;28;20021;-59
2022/10/17 09:16:39;;;;;;;9.35;4.43;;;19.00;99.90;;;;;;5028781;28;20056;-57
2022/10/17 09:19:32;;;;;;;7.95;3.63;;;19.00;99.90;;;;;;5030100;28;20384;-59
2022/10/17 09:22:03;;;;;;;7.45;3.53;;;19.00;99.90;;;;;;5030963;28;20022;-60
2022/10/17 09:24:41;;;;;;;11.52;3.88;;;19.10;99.90;;;;;;5030784;28;20026;-59
2022/10/17 09:27:26;;;;;;;15.90;5.90;;;19.10;99.90;;;;;;5031039;28;20097;-58
2022/10/17 09:30:05;;;;;;;8.80;4.03;;;19.10;99.90;;;;;;5028936;28;20029;-60
2022/10/17 09:32:31;;;;;;;12.88;4.30;;;19.10;99.90;;;;;;5030589;28;20025;-57
2022/10/17 09:34:56;;;;;;;8.30;4.32;;;19.20;99.90;;;;;;5030147;28;20032;-58
2022/10/17 09:37:29;;;;;;;15.85;4.28;;;19.30;99.90;;;;;;5024375;28;20029;-59
2022/10/17 09:39:55;;;;;;;12.18;4.47;;;19.30;99.90;;;;;;5029744;28;20045;-57
2022/10/17 09:45:35;;;;;;;7.60;3.30;;;19.50;99.90;;;;;;5025985;28;20041;-63
2022/10/17 09:48:07;;;;;;;6.05;3.72;;;19.50;99.90;;;;;;4909613;29;20494;-63
2022/10/17 09:50:34;;;;;;;7.75;3.80;;;19.60;99.90;;;;;;5007250;28;20029;-64
2022/10/17 09:53:14;;;;;;;4.35;3.70;;;19.60;99.90;;;;;;5029792;28;20497;-64
2022/10/17 09:55:47;;;;;;;11.85;3.50;;;19.70;99.90;;;;;;5019290;28;20025;-60
2022/10/17 09:58:13;;;;;;;12.15;3.53;;;19.70;99.90;;;;;;5026717;28;20606;-63
2022/10/17 10:00:44;;;;;;;7.15;3.67;;;19.80;99.90;;;;;;5028527;28;20037;-60
2022/10/17 10:03:15;;;;;;;11.52;4.60;;;19.80;99.90;;;;;;5026503;28;20802;-63
2022/10/17 10:05:56;;;;;;;8.50;3.50;;;20.00;99.90;;;;;;5028002;28;20033;-63
2022/10/17 10:08:25;;;;;;;11.95;3.60;;;20.10;99.90;;;;;;5026932;28;20038;-60
2022/10/17 10:11:04;;;;;;;8.35;3.53;;;20.20;99.90;;;;;;5027410;28;20556;-65
2022/10/17 10:13:31;;;;;;;13.38;4.32;;;20.40;99.90;;;;;;5028309;28;20022;-60
2022/10/17 10:16:14;;;;;;;12.75;3.85;;;20.50;99.90;;;;;;5027178;28;20160;-64
2022/10/17 10:18:40;;;;;;;20.98;3.08;;;20.70;99.90;;;;;;5024418;28;20048;-62
2022/10/17 10:21:26;;;;;;;7.32;4.07;;;20.90;99.90;;;;;;5029325;28;20025;-63
2022/10/17 10:24:12;;;;;;;8.05;2.72;;;21.10;99.90;;;;;;5024125;28;20163;-63
2022/10/17 10:26:44;;;;;;;7.70;3.58;;;21.10;99.90;;;;;;5027781;28;20025;-62
2022/10/17 10:29:40;;;;;;;7.07;3.35;;;21.00;99.90;;;;;;5030774;28;20219;-63
2022/10/17 10:32:20;;;;;;;13.00;3.42;;;20.90;99.90;;;;;;5025033;28;20492;-62
2022/10/17 10:34:52;;;;;;;15.23;3.53;;;20.90;99.90;;;;;;5028404;28;20104;-62
2022/10/17 10:37:24;;;;;;;5.57;3.35;;;20.80;99.90;;;;;;5027202;28;20022;-65
2022/10/17 10:39:58;;;;;;;7.72;3.38;;;20.80;99.90;;;;;;5029212;28;20483;-62
2022/10/17 10:42:36;;;;;;;10.63;3.42;;;20.80;99.90;;;;;;5028017;28;20112;-62
2022/10/17 10:45:18;;;;;;;9.80;3.22;;;20.80;99.90;;;;;;5027963;28;20029;-62
2022/10/17 10:47:59;;;;;;;7.25;3.20;;;20.80;99.90;;;;;;5026087;28;20131;-62
2022/10/17 10:50:39;;;;;;;9.20;2.90;;;20.70;99.90;;;;;;5023441;28;20037;-63
2022/10/17 10:53:41;;;;;;;7.35;3.45;;;20.70;99.90;;;;;;5028654;28;20101;-62
2022/10/17 10:56:19;;;;;;;16.17;2.88;;;20.70;99.90;;;;;;5028076;28;20097;-66
2022/10/17 10:58:54;;;;;;;6.60;3.72;;;20.70;99.90;;;;;;5026044;28;20211;-66
2022/10/17 11:01:24;;;;;;;9.30;3.13;;;20.70;99.90;;;;;;5025417;28;20517;-64
2022/10/17 11:03:58;;;;;;;7.50;3.55;;;20.80;99.90;;;;;;5023307;28;20051;-62
2022/10/17 11:06:33;;;;;;;5.65;3.45;;;20.70;99.90;;;;;;5013128;28;20661;-64
2022/10/17 11:09:16;;;;;;;11.45;4.45;;;20.70;99.90;;;;;;5009870;28;20033;-65
2022/10/17 11:11:55;;;;;;;6.53;3.70;;;20.60;99.90;;;;;;5032272;28;20084;-63
2022/10/17 11:14:26;;;;;;;9.98;4.03;;;20.60;99.90;;;;;;5030445;28;20041;-67
2022/10/17 11:17:12;;;;;;;9.10;3.50;;;20.60;99.90;;;;;;5032547;28;20083;-61
2022/10/17 11:19:45;;;;;;;10.88;3.97;;;20.50;99.90;;;;;;5032216;28;20507;-61
2022/10/17 11:22:33;;;;;;;7.22;3.65;;;20.60;99.90;;;;;;5030826;28;20034;-62
2022/10/17 11:25:13;;;;;;;11.68;3.65;;;20.60;99.90;;;;;;5029106;28;20036;-65
2022/10/17 11:27:38;;;;;;;11.70;3.80;;;20.60;99.90;;;;;;5029664;28;20926;-62
2022/10/17 11:30:05;;;;;;;7.35;4.03;;;20.60;99.90;;;;;;5030665;28;20041;-63
2022/10/17 11:32:53;;;;;;;10.95;4.50;;;20.70;99.90;;;;;;5031630;28;20398;-63
2022/10/17 11:35:22;;;;;;;10.48;3.83;;;20.70;99.90;;;;;;5028135;28;20039;-64
2022/10/17 11:38:15;;;;;;;11.00;3.80;;;20.70;99.90;;;;;;5031173;28;20032;-64
2022/10/17 11:40:46;;;;;;;7.07;3.22;;;20.70;99.90;;;;;;5030423;28;20029;-66
2022/10/17 11:43:31;;;;;;;8.60;3.50;;;20.80;99.90;;;;;;5030378;28;20609;-60
2022/10/17 11:46:17;;;;;;;;;;;20.80;99.90;;;;;;5030555;28;20380;-64
2022/10/17 11:48:59;;;;;;;11.60;3.75;;;20.80;99.90;;;;;;5030917;28;19928;-61
2022/10/17 11:51:25;;;;;;;14.93;4.28;;;20.80;99.90;;;;;;5025296;28;20109;-62
2022/10/17 11:53:56;;;;;;;17.17;5.43;;;20.80;99.90;;;;;;5032312;28;20117;-63
2022/10/17 11:56:43;;;;;;;9.82;4.35;;;20.70;99.90;;;;;;5030735;28;20040;-63
2022/10/17 11:59:39;;;;;;;10.57;4.28;;;20.70;99.90;;;;;;5031526;28;20025;-65
2022/10/17 12:02:12;;;;;;;13.20;3.58;;;20.70;99.90;;;;;;5031067;28;20088;-62
2022/10/17 12:05:12;;;;;;;12.07;4.07;;;20.70;99.90;;;;;;5026210;28;20067;-61
2022/10/17 12:07:51;;;;;;;11.52;3.75;;;20.70;99.90;;;;;;5030108;28;20036;-62
2022/10/17 12:10:33;;;;;;;10.85;3.65;;;20.70;99.90;;;;;;5030541;28;20491;-62
2022/10/17 12:13:27;;;;;;;7.68;3.00;;;20.60;99.90;;;;;;5029134;28;20022;-62
2022/10/17 12:15:57;;;;;;;10.95;3.92;;;20.70;99.90;;;;;;5031538;28;20021;-61
2022/10/17 12:18:26;;;;;;;8.57;3.13;;;20.80;99.90;;;;;;5030646;28;20064;-66
2022/10/17 12:20:59;;;;;;;5.32;3.22;;;20.90;99.90;;;;;;5030548;28;20021;-63
2022/10/17 12:23:31;;;;;;;5.82;3.30;;;20.90;99.90;;;;;;5032027;28;20025;-61
2022/10/17 12:26:00;;;;;;;16.42;3.58;;;20.80;99.90;;;;;;5029812;28;20116;-61
2022/10/17 12:28:33;;;;;;;6.38;3.33;;;20.80;99.90;;;;;;5029222;28;20056;-61
2022/10/17 12:31:04;;;;;;;5.25;3.28;;;20.80;99.90;;;;;;5023592;28;20052;-62
2022/10/17 12:33:37;;;;;;;5.82;3.35;;;20.80;99.90;;;;;;5028729;28;20487;-59
2022/10/17 12:36:17;;;;;;;12.70;4.35;;;20.80;99.90;;;;;;5024818;28;20010;-59
2022/10/17 12:38:48;;;;;;;13.50;4.57;;;20.70;99.90;;;;;;5032039;28;20060;-60
2022/10/17 12:41:14;;;;;;;8.35;3.53;;;20.60;99.90;;;;;;5029026;28;20033;-62
2022/10/17 12:43:46;;;;;;;8.85;4.40;;;20.50;99.90;;;;;;5022556;28;20104;-64
2022/10/17 12:46:12;;;;;;;8.75;3.75;;;20.60;99.90;;;;;;5025168;28;20525;-60
2022/10/17 12:48:38;;;;;;;15.63;3.90;;;20.60;99.90;;;;;;5027223;28;20028;-63
2022/10/17 12:51:03;;;;;;;12.75;4.00;;;20.60;99.90;;;;;;5029327;28;20029;-62
2022/10/17 12:54:05;;;;;;;8.45;3.92;;;20.50;99.90;;;;;;5020983;28;20068;-62
2022/10/17 12:56:37;;;;;;;9.48;3.65;;;20.60;99.90;;;;;;5022255;28;20030;-63
2022/10/17 12:59:11;;;;;;;19.88;4.07;;;20.60;99.90;;;;;;5025093;28;20014;-63
2022/10/17 13:01:38;;;;;;;9.80;3.17;;;20.60;99.90;;;;;;5024170;28;20476;-66